Time;durP1;ratioP1;P1;durP2;ratioP2;P2;SDS_P1;SDS_P2;PMS_P1;PMS_P2;Temp;Humidity;BMP_temperature;BMP_pressure;BME280_temperature;BME280_humidity;BME280_pressure;Samples;Min_cycle;Max_cycle;Signal;HPM_P1;HPM_P2
2020/12/03 00:02:31;;;;;;;36.63;19.83;;;;;;;;;;5022785;28;20588;-75
2020/12/03 00:05:35;;;;;;;39.07;20.33;;;;;;;;;;5011542;28;20619;-74
2020/12/03 00:08:44;;;;;;;40.37;21.00;;;;;;;;;;5011780;28;20592;-74
2020/12/03 00:11:52;;;;;;;36.13;19.53;;;;;;;;;;4989431;28;20580;-74
2020/12/03 00:14:56;;;;;;;38.13;20.67;;;;;;;;;;5015042;28;21226;-74
2020/12/03 00:18:00;;;;;;;42.90;21.33;;;;;;;;;;5014048;28;20557;-74
2020/12/03 00:21:10;;;;;;;34.93;19.87;;;;;;;;;;5030128;28;20603;-74
2020/12/03 00:24:18;;;;;;;36.23;19.67;;;;;;;;;;5034393;28;20540;-74
2020/12/03 00:27:23;;;;;;;38.63;20.80;;;;;;;;;;5034241;28;20627;-74
2020/12/03 00:30:27;;;;;;;41.47;21.77;;;;;;;;;;5024006;28;21160;-74
2020/12/03 00:33:31;;;;;;;38.73;20.70;;;;;;;;;;5014655;28;20596;-74
2020/12/03 00:36:36;;;;;;;37.83;20.97;;;;;;;;;;5033919;28;20635;-74
2020/12/03 00:39:40;;;;;;;41.53;20.83;;;;;;;;;;5030199;28;20624;-74
2020/12/03 00:42:46;;;;;;;36.53;21.00;;;;;;;;;;5014012;28;20900;-74
2020/12/03 00:45:50;;;;;;;37.77;20.87;;;;;;;;;;5014199;28;20627;-74
2020/12/03 00:48:54;;;;;;;40.20;20.80;;;;;;;;;;5014496;28;20550;-74
2020/12/03 00:51:58;;;;;;;36.80;18.87;;;;;;;;;;4983117;28;20892;-74
2020/12/03 00:55:09;;;;;;;41.57;22.30;;;;;;;;;;4978255;28;20639;-74
2020/12/03 00:58:15;;;;;;;40.07;21.40;;;;;;;;;;5002169;28;20612;-74
2020/12/03 01:01:20;;;;;;;38.00;21.87;;;;;;;;;;5018400;28;20598;-74
2020/12/03 01:04:24;;;;;;;40.97;22.07;;;;;;;;;;5033658;28;20626;-74
2020/12/03 01:07:29;;;;;;;40.23;20.53;;;;;;;;;;5033559;28;20986;-74
2020/12/03 01:10:35;;;;;;;38.83;21.80;;;;;;;;;;5023022;28;20601;-75
2020/12/03 01:13:39;;;;;;;41.77;22.43;;;;;;;;;;5033111;28;20623;-74
2020/12/03 01:16:45;;;;;;;44.60;22.27;;;;;;;;;;5033641;28;20626;-74
2020/12/03 01:19:50;;;;;;;44.40;22.77;;;;;;;;;;5029291;28;21178;-75
2020/12/03 01:22:55;;;;;;;43.87;22.37;;;;;;;;;;5002103;28;20892;-74
2020/12/03 01:25:59;;;;;;;40.07;21.83;;;;;;;;;;5013680;28;20974;-75
2020/12/03 01:29:03;;;;;;;39.50;21.03;;;;;;;;;;5013265;28;20607;-74
2020/12/03 01:32:08;;;;;;;43.53;23.07;;;;;;;;;;4994125;28;20557;-74
2020/12/03 01:35:15;;;;;;;41.20;22.70;;;;;;;;;;4995429;28;20640;-74
2020/12/03 01:38:19;;;;;;;40.90;21.70;;;;;;;;;;5033306;28;20539;-74
2020/12/03 01:41:24;;;;;;;43.37;22.53;;;;;;;;;;5016379;28;20599;-74
2020/12/03 01:44:37;;;;;;;45.60;23.77;;;;;;;;;;5013611;28;20552;-74
2020/12/03 01:47:42;;;;;;;46.23;23.27;;;;;;;;;;5001281;28;20565;-74
2020/12/03 01:50:47;;;;;;;44.53;22.77;;;;;;;;;;5011964;28;21227;-74
2020/12/03 01:53:55;;;;;;;42.40;22.13;;;;;;;;;;5021056;28;20595;-74
2020/12/03 01:57:20;;;;;;;42.80;22.63;;;;;;;;;;5033061;28;20622;-74
2020/12/03 02:00:25;;;;;;;44.20;23.07;;;;;;;;;;5023241;28;20601;-74
2020/12/03 02:03:29;;;;;;;44.73;22.10;;;;;;;;;;5001150;28;20547;-74
2020/12/03 02:06:38;;;;;;;44.23;23.20;;;;;;;;;;5013311;28;20635;-74
2020/12/03 02:09:42;;;;;;;42.67;22.43;;;;;;;;;;5015926;28;21046;-74
2020/12/03 02:12:46;;;;;;;46.17;23.57;;;;;;;;;;5032494;28;20543;-74
2020/12/03 02:15:51;;;;;;;40.23;22.00;;;;;;;;;;5032643;28;21009;-74
2020/12/03 02:18:55;;;;;;;40.63;22.50;;;;;;;;;;5032393;28;20698;-74
2020/12/03 02:22:02;;;;;;;40.97;21.70;;;;;;;;;;4993639;28;20612;-74
2020/12/03 02:25:08;;;;;;;43.93;22.97;;;;;;;;;;4992583;28;20603;-74
2020/12/03 02:28:12;;;;;;;48.10;24.13;;;;;;;;;;4993656;28;20549;-74
2020/12/03 02:31:17;;;;;;;43.70;23.83;;;;;;;;;;5024423;28;20604;-74
2020/12/03 02:34:22;;;;;;;45.57;22.17;;;;;;;;;;5032212;28;20644;-74
2020/12/03 02:37:28;;;;;;;46.83;24.17;;;;;;;;;;5003925;28;21021;-74
2020/12/03 02:40:32;;;;;;;48.80;24.30;;;;;;;;;;5025058;28;20631;-74
2020/12/03 02:43:37;;;;;;;44.80;24.00;;;;;;;;;;5005613;28;20607;-74
2020/12/03 02:46:42;;;;;;;45.30;22.80;;;;;;;;;;5016585;28;20626;-74
2020/12/03 02:49:47;;;;;;;42.50;21.43;;;;;;;;;;4995899;28;20602;-74
2020/12/03 02:52:52;;;;;;;42.73;21.70;;;;;;;;;;5036669;28;20547;-74
2020/12/03 02:55:56;;;;;;;45.43;22.80;;;;;;;;;;5036127;28;21240;-74
2020/12/03 02:59:00;;;;;;;44.20;22.93;;;;;;;;;;5035264;28;20604;-74
2020/12/03 03:02:05;;;;;;;41.97;22.17;;;;;;;;;;5019655;28;20994;-74
2020/12/03 03:05:09;;;;;;;44.57;21.87;;;;;;;;;;5016220;28;20758;-74
2020/12/03 03:08:13;;;;;;;42.00;20.93;;;;;;;;;;5003992;28;20915;-74
2020/12/03 03:11:18;;;;;;;43.00;21.07;;;;;;;;;;5028780;28;20606;-74
2020/12/03 03:14:22;;;;;;;40.63;20.67;;;;;;;;;;5023763;28;20596;-74
2020/12/03 03:17:26;;;;;;;46.03;22.07;;;;;;;;;;5035244;28;20662;-74
2020/12/03 03:20:30;;;;;;;38.00;20.77;;;;;;;;;;5028800;28;20631;-74
2020/12/03 03:23:34;;;;;;;43.60;22.07;;;;;;;;;;5015770;28;20962;-74
2020/12/03 03:26:38;;;;;;;41.00;21.40;;;;;;;;;;5014860;28;20623;-74
2020/12/03 03:29:42;;;;;;;43.73;23.07;;;;;;;;;;5006451;28;20629;-75
2020/12/03 03:32:47;;;;;;;45.73;23.30;;;;;;;;;;5034820;28;20614;-74
2020/12/03 03:35:51;;;;;;;43.87;21.37;;;;;;;;;;5011357;28;20672;-74
2020/12/03 03:38:55;;;;;;;45.63;22.57;;;;;;;;;;5015407;28;20615;-74
2020/12/03 03:41:59;;;;;;;40.53;21.10;;;;;;;;;;5015682;28;20897;-74
2020/12/03 03:45:05;;;;;;;46.50;23.73;;;;;;;;;;5015482;28;20595;-74
2020/12/03 03:48:09;;;;;;;47.27;22.77;;;;;;;;;;5015341;28;20544;-74
2020/12/03 03:51:15;;;;;;;44.40;22.50;;;;;;;;;;5030194;28;20623;-74
2020/12/03 03:54:18;;;;;;;48.90;23.43;;;;;;;;;;5035188;28;20549;-74
2020/12/03 03:57:24;;;;;;;47.00;23.67;;;;;;;;;;5034867;28;20626;-74
2020/12/03 04:00:28;;;;;;;43.80;22.13;;;;;;;;;;5021221;28;20644;-75
2020/12/03 04:03:32;;;;;;;47.80;22.73;;;;;;;;;;5015033;28;20547;-74
2020/12/03 04:06:37;;;;;;;47.73;24.17;;;;;;;;;;5014911;28;21216;-74
2020/12/03 04:09:41;;;;;;;43.50;21.87;;;;;;;;;;5021303;28;21163;-74
2020/12/03 04:12:45;;;;;;;45.47;21.00;;;;;;;;;;5018283;28;20600;-75
2020/12/03 04:15:49;;;;;;;43.80;22.03;;;;;;;;;;5015118;28;20663;-74
2020/12/03 04:18:53;;;;;;;45.03;21.97;;;;;;;;;;5002762;28;21090;-74
2020/12/03 04:21:57;;;;;;;40.00;22.03;;;;;;;;;;4983494;28;20550;-74
2020/12/03 04:25:02;;;;;;;39.83;21.73;;;;;;;;;;4995490;28;20551;-74
2020/12/03 04:28:07;;;;;;;44.77;22.40;;;;;;;;;;4995260;28;20551;-74
2020/12/03 04:31:11;;;;;;;44.23;22.77;;;;;;;;;;5031186;28;20588;-74
2020/12/03 04:34:16;;;;;;;46.17;22.10;;;;;;;;;;5019886;28;20536;-75
2020/12/03 04:37:20;;;;;;;46.97;22.70;;;;;;;;;;5014395;28;21264;-74
2020/12/03 04:40:30;;;;;;;44.50;22.50;;;;;;;;;;5025536;28;20650;-74
2020/12/03 04:43:40;;;;;;;44.87;21.87;;;;;;;;;;5033042;23;20706;-70
2020/12/03 04:47:01;;;;;;;45.03;22.00;;;;;;;;;;5033264;28;20630;-70
2020/12/03 04:50:11;;;;;;;48.43;22.37;;;;;;;;;;5021692;28;20599;-70
2020/12/03 04:53:29;;;;;;;43.50;21.63;;;;;;;;;;5021869;28;20603;-70
2020/12/03 04:56:45;;;;;;;49.17;22.53;;;;;;;;;;5021728;28;20668;-70
2020/12/03 05:00:11;;;;;;;44.97;22.77;;;;;;;;;;5033592;28;20609;-70
2020/12/03 05:03:50;;;;;;;51.60;22.43;;;;;;;;;;5033234;28;20544;-70
2020/12/03 05:06:59;;;;;;;43.20;21.10;;;;;;;;;;5033068;28;20634;-70
2020/12/03 05:10:39;;;;;;;43.83;22.07;;;;;;;;;;5033403;28;20604;-70
2020/12/03 05:13:48;;;;;;;46.83;22.10;;;;;;;;;;5033437;28;20571;-70
2020/12/03 05:17:18;;;;;;;45.33;21.90;;;;;;;;;;5013820;28;21026;-70
2020/12/03 05:20:37;;;;;;;46.97;20.27;;;;;;;;;;5024601;28;20594;-70
2020/12/03 05:23:41;;;;;;;46.43;21.40;;;;;;;;;;5033684;28;20559;-70
2020/12/03 05:26:45;;;;;;;45.60;22.40;;;;;;;;;;5013653;28;20627;-70
2020/12/03 05:29:50;;;;;;;41.37;20.80;;;;;;;;;;5019886;28;20603;-70
2020/12/03 05:32:54;;;;;;;45.70;20.27;;;;;;;;;;5033265;28;20607;-70
2020/12/03 05:35:59;;;;;;;43.77;20.17;;;;;;;;;;5032626;28;20690;-70
2020/12/03 05:39:13;;;;;;;40.20;20.10;;;;;;;;;;5033048;28;20594;-70
2020/12/03 05:42:29;;;;;;;42.80;21.13;;;;;;;;;;5013572;28;20619;-71
2020/12/03 05:45:34;;;;;;;40.17;20.10;;;;;;;;;;5013640;28;20632;-71
2020/12/03 05:48:38;;;;;;;44.30;20.80;;;;;;;;;;5013604;28;20611;-70
2020/12/03 05:51:42;;;;;;;42.63;21.17;;;;;;;;;;5013572;28;20610;-70
2020/12/03 05:54:58;;;;;;;43.10;20.87;;;;;;;;;;5025199;28;20608;-70
2020/12/03 05:58:26;;;;;;;45.47;21.30;;;;;;;;;;5021219;28;20603;-70
2020/12/03 06:01:31;;;;;;;45.43;22.07;;;;;;;;;;5032748;28;20596;-70
2020/12/03 06:04:44;;;;;;;50.70;26.53;;;;;;;;;;5032345;28;20962;-70
2020/12/03 06:07:59;;;;;;;47.13;21.73;;;;;;;;;;5009802;28;20549;-71
2020/12/03 06:11:44;;;;;;;43.10;21.77;;;;;;;;;;5032676;28;20600;-71
2020/12/03 06:15:09;;;;;;;46.30;20.80;;;;;;;;;;5021611;28;20606;-70
2020/12/03 06:18:43;;;;;;;46.00;21.80;;;;;;;;;;5024671;28;20563;-72
2020/12/03 06:22:10;;;;;;;40.43;21.03;;;;;;;;;;5017171;28;20563;-72
2020/12/03 06:25:19;;;;;;;48.10;22.57;;;;;;;;;;5025379;28;20597;-71
2020/12/03 06:28:37;;;;;;;46.93;21.30;;;;;;;;;;5024034;28;20603;-73
2020/12/03 06:31:52;;;;;;;42.03;20.67;;;;;;;;;;5016974;28;20583;-73
2020/12/03 06:35:03;;;;;;;44.83;22.40;;;;;;;;;;5036722;28;20587;-73
2020/12/03 06:38:58;;;;;;;46.00;21.47;;;;;;;;;;5036777;28;20567;-72
2020/12/03 06:42:13;;;;;;;46.37;20.77;;;;;;;;;;5036269;28;20612;-73
2020/12/03 06:45:27;;;;;;;46.80;23.33;;;;;;;;;;5036077;28;20628;-72
2020/12/03 06:49:00;;;;;;;42.30;20.43;;;;;;;;;;5024036;28;20603;-72
2020/12/03 06:52:32;;;;;;;38.43;19.50;;;;;;;;;;5036345;28;20548;-73
2020/12/03 06:56:15;;;;;;;42.23;20.57;;;;;;;;;;5024283;28;20665;-72
2020/12/03 06:59:53;;;;;;;40.83;20.57;;;;;;;;;;5036234;28;20902;-72
2020/12/03 07:03:29;;;;;;;47.07;21.40;;;;;;;;;;5036096;28;21130;-72
2020/12/03 07:06:52;;;;;;;45.53;21.43;;;;;;;;;;5023691;28;20629;-72
2020/12/03 07:10:34;;;;;;;44.23;22.40;;;;;;;;;;5036008;28;20551;-72
2020/12/03 07:14:13;;;;;;;50.03;22.97;;;;;;;;;;5036114;28;20552;-73
2020/12/03 07:17:27;;;;;;;44.10;22.07;;;;;;;;;;5023390;28;21231;-72
2020/12/03 07:21:06;;;;;;;45.73;22.20;;;;;;;;;;5035570;28;20919;-72
2020/12/03 07:24:21;;;;;;;51.63;22.57;;;;;;;;;;5035580;28;20586;-72
2020/12/03 07:28:00;;;;;;;43.77;20.80;;;;;;;;;;5035045;28;20630;-73
2020/12/03 07:31:17;;;;;;;46.00;22.00;;;;;;;;;;5023591;28;20555;-73
2020/12/03 07:34:27;;;;;;;47.97;20.77;;;;;;;;;;5023607;28;20544;-72
2020/12/03 07:37:45;;;;;;;44.10;22.60;;;;;;;;;;5034238;28;20655;-72
2020/12/03 07:40:54;;;;;;;45.13;21.67;;;;;;;;;;5034431;28;21156;-72
2020/12/03 07:44:19;;;;;;;50.90;23.20;;;;;;;;;;5035135;28;20973;-71
2020/12/03 07:47:38;;;;;;;47.00;21.43;;;;;;;;;;5022885;28;20627;-72
2020/12/03 07:50:46;;;;;;;46.20;22.13;;;;;;;;;;5022870;28;20568;-72
2020/12/03 07:54:16;;;;;;;43.30;21.10;;;;;;;;;;5022974;28;20616;-72
2020/12/03 07:57:43;;;;;;;51.40;24.00;;;;;;;;;;5034835;28;20658;-72
2020/12/03 08:00:51;;;;;;;44.63;21.13;;;;;;;;;;5011984;28;21081;-72
2020/12/03 08:03:57;;;;;;;47.90;22.37;;;;;;;;;;5035021;28;20557;-72
2020/12/03 08:07:02;;;;;;;47.73;22.67;;;;;;;;;;5022495;28;21200;-72
2020/12/03 08:10:39;;;;;;;43.90;22.10;;;;;;;;;;5034481;28;20587;-73
2020/12/03 08:13:54;;;;;;;46.87;21.93;;;;;;;;;;5032188;28;20586;-73
2020/12/03 08:16:59;;;;;;;45.37;22.13;;;;;;;;;;5034515;28;21244;-73
2020/12/03 08:20:03;;;;;;;50.87;22.60;;;;;;;;;;5035081;28;20555;-72
2020/12/03 08:23:13;;;;;;;49.73;22.57;;;;;;;;;;5011313;28;20538;-73
2020/12/03 08:26:27;;;;;;;50.87;24.10;;;;;;;;;;5034434;28;20618;-72
2020/12/03 08:29:37;;;;;;;44.60;21.97;;;;;;;;;;5034551;28;20579;-73
2020/12/03 08:33:11;;;;;;;49.27;22.23;;;;;;;;;;5034403;28;20563;-72
2020/12/03 08:36:16;;;;;;;43.67;20.90;;;;;;;;;;5034216;28;21236;-71
2020/12/03 08:39:20;;;;;;;48.90;22.37;;;;;;;;;;5021510;28;20569;-72
2020/12/03 08:42:25;;;;;;;45.40;22.13;;;;;;;;;;5034425;28;20615;-73
2020/12/03 08:45:33;;;;;;;45.23;21.47;;;;;;;;;;5033517;28;20555;-72
2020/12/03 08:48:40;;;;;;;47.37;22.03;;;;;;;;;;5033430;28;20555;-72
2020/12/03 08:51:47;;;;;;;43.57;21.00;;;;;;;;;;5022229;28;20553;-70
2020/12/03 08:54:52;;;;;;;45.10;22.27;;;;;;;;;;5034276;28;21093;-72
2020/12/03 08:57:59;;;;;;;48.20;21.93;;;;;;;;;;5010860;28;20595;-72
2020/12/03 09:01:04;;;;;;;44.27;22.30;;;;;;;;;;5034086;28;21214;-72
2020/12/03 09:04:09;;;;;;;42.37;21.57;;;;;;;;;;5021719;28;20596;-73
2020/12/03 09:07:17;;;;;;;45.83;21.17;;;;;;;;;;5033422;28;20666;-74
2020/12/03 09:10:21;;;;;;;51.07;22.23;;;;;;;;;;5002108;28;21133;-73
2020/12/03 09:13:27;;;;;;;46.87;21.67;;;;;;;;;;5020775;28;20614;-74
2020/12/03 09:16:44;;;;;;;44.67;21.80;;;;;;;;;;5011657;28;21232;-73
2020/12/03 09:19:48;;;;;;;46.57;21.50;;;;;;;;;;5022020;28;20545;-72
2020/12/03 09:23:03;;;;;;;49.03;22.30;;;;;;;;;;5003834;28;20646;-73
2020/12/03 09:26:33;;;;;;;47.20;22.60;;;;;;;;;;4985137;28;20647;-73
2020/12/03 09:29:38;;;;;;;46.67;22.20;;;;;;;;;;5013904;28;20548;-72
2020/12/03 09:32:43;;;;;;;41.07;20.80;;;;;;;;;;5029740;28;20619;-72
2020/12/03 09:35:49;;;;;;;45.13;21.57;;;;;;;;;;5023637;28;20663;-73
2020/12/03 09:38:58;;;;;;;43.73;21.27;;;;;;;;;;5013814;28;20548;-73
2020/12/03 09:42:05;;;;;;;48.07;21.63;;;;;;;;;;5013508;28;20607;-72
2020/12/03 09:45:15;;;;;;;41.60;20.63;;;;;;;;;;5013876;28;20900;-72
2020/12/03 09:48:20;;;;;;;43.57;20.63;;;;;;;;;;5008927;28;20607;-72
2020/12/03 09:51:27;;;;;;;44.07;21.83;;;;;;;;;;5033012;28;20580;-72
2020/12/03 09:54:43;;;;;;;42.03;20.70;;;;;;;;;;5032762;28;21134;-71
2020/12/03 09:57:58;;;;;;;43.67;20.30;;;;;;;;;;5022828;28;20624;-72
2020/12/03 10:01:06;;;;;;;43.43;20.73;;;;;;;;;;5033326;28;20545;-72
2020/12/03 10:04:43;;;;;;;38.30;20.33;;;;;;;;;;5020658;28;20618;-71
2020/12/03 10:07:48;;;;;;;40.67;19.43;;;;;;;;;;5019663;28;20596;-71
2020/12/03 10:10:58;;;;;;;40.73;20.13;;;;;;;;;;5011726;28;20564;-71
2020/12/03 10:14:23;;;;;;;41.33;18.50;;;;;;;;;;5000765;28;20589;-73
2020/12/03 10:17:43;;;;;;;39.13;18.50;;;;;;;;;;5012932;28;21225;-73
2020/12/03 10:20:51;;;;;;;33.23;17.93;;;;;;;;;;5000848;28;20624;-73
2020/12/03 10:24:13;;;;;;;36.87;18.97;;;;;;;;;;4993600;28;20616;-73
2020/12/03 10:27:25;;;;;;;37.60;18.17;;;;;;;;;;5012783;28;20640;-72
2020/12/03 10:30:35;;;;;;;37.17;18.23;;;;;;;;;;5013206;28;20604;-72
2020/12/03 10:33:40;;;;;;;34.77;17.77;;;;;;;;;;5013806;28;20549;-71
2020/12/03 10:36:53;;;;;;;35.67;18.17;;;;;;;;;;5013544;28;20660;-72
2020/12/03 10:40:14;;;;;;;35.70;18.33;;;;;;;;;;5012769;28;20956;-71
2020/12/03 10:43:26;;;;;;;37.47;18.53;;;;;;;;;;5038509;23;20695;-75
2020/12/03 10:46:37;;;;;;;39.07;19.93;;;;;;;;;;5020574;28;20615;-76
2020/12/03 10:49:43;;;;;;;35.90;18.10;;;;;;;;;;5008535;28;20591;-75
2020/12/03 10:52:47;;;;;;;39.03;18.63;;;;;;;;;;5000843;28;20536;-76
2020/12/03 10:56:05;;;;;;;36.90;18.67;;;;;;;;;;4992137;28;20620;-76
2020/12/03 10:59:29;;;;;;;38.93;18.43;;;;;;;;;;5010855;28;20576;-76
2020/12/03 11:02:41;;;;;;;36.87;18.83;;;;;;;;;;4989617;28;20593;-75
2020/12/03 11:05:46;;;;;;;38.50;19.77;;;;;;;;;;4985056;28;20629;-75
2020/12/03 11:08:51;;;;;;;34.50;19.20;;;;;;;;;;4992223;28;20581;-76
2020/12/03 11:11:55;;;;;;;38.03;20.00;;;;;;;;;;4996834;28;20538;-76
2020/12/03 11:15:05;;;;;;;34.77;18.23;;;;;;;;;;5020570;28;20572;-79
2020/12/03 11:18:18;;;;;;;38.73;18.37;;;;;;;;;;5012968;28;20631;-79
2020/12/03 11:21:25;;;;;;;32.37;17.20;;;;;;;;;;4995834;28;20592;-79
2020/12/03 11:24:59;;;;;;;34.67;18.67;;;;;;;;;;4993681;28;20544;-79
2020/12/03 11:28:36;;;;;;;41.03;19.23;;;;;;;;;;5007595;28;20604;-80
2020/12/03 11:31:41;;;;;;;34.83;18.60;;;;;;;;;;4962783;28;20585;-80
2020/12/03 11:34:46;;;;;;;37.57;18.33;;;;;;;;;;4992304;28;20584;-80
2020/12/03 11:37:58;;;;;;;35.03;18.53;;;;;;;;;;5015567;28;20584;-80
2020/12/03 11:41:08;;;;;;;36.87;18.80;;;;;;;;;;5004744;28;21067;-80
2020/12/03 11:44:33;;;;;;;34.57;18.20;;;;;;;;;;5023659;28;20610;-80
2020/12/03 11:48:05;;;;;;;34.77;19.13;;;;;;;;;;4982169;28;21230;-80
2020/12/03 11:51:27;;;;;;;32.43;17.70;;;;;;;;;;4973507;28;20541;-80
2020/12/03 11:54:31;;;;;;;33.43;17.23;;;;;;;;;;4991729;28;20601;-80
2020/12/03 11:57:35;;;;;;;33.07;17.33;;;;;;;;;;4981674;28;20656;-80
2020/12/03 12:00:40;;;;;;;33.30;17.70;;;;;;;;;;4992925;28;21154;-80
2020/12/03 12:03:48;;;;;;;31.47;16.53;;;;;;;;;;4981808;28;20655;-80
2020/12/03 12:10:25;;;;;;;32.40;17.63;;;;;;;;;;4992300;28;20588;-79
2020/12/03 12:13:29;;;;;;;35.47;18.37;;;;;;;;;;4986919;28;20585;-80
2020/12/03 12:16:33;;;;;;;32.37;17.73;;;;;;;;;;4999329;28;20648;-76
2020/12/03 12:19:39;;;;;;;31.07;17.10;;;;;;;;;;5003138;28;20525;-75
2020/12/03 12:22:43;;;;;;;29.93;16.33;;;;;;;;;;5015544;28;20588;-75
2020/12/03 12:25:47;;;;;;;35.03;18.57;;;;;;;;;;5002670;28;20620;-76
2020/12/03 12:28:51;;;;;;;35.03;19.00;;;;;;;;;;4983164;28;20617;-76
2020/12/03 12:31:56;;;;;;;35.33;18.13;;;;;;;;;;4995693;28;20605;-74
2020/12/03 12:35:00;;;;;;;33.57;18.17;;;;;;;;;;4983062;28;20533;-75
2020/12/03 12:38:04;;;;;;;34.67;18.50;;;;;;;;;;5005368;28;20628;-75
2020/12/03 12:41:09;;;;;;;33.07;17.50;;;;;;;;;;4989500;28;20601;-75
2020/12/03 12:44:13;;;;;;;36.57;17.90;;;;;;;;;;4998729;28;20538;-74
2020/12/03 12:47:17;;;;;;;33.60;18.30;;;;;;;;;;5028665;28;20640;-74
2020/12/03 12:50:21;;;;;;;30.10;17.60;;;;;;;;;;5001667;28;20591;-74
2020/12/03 12:53:25;;;;;;;35.37;17.13;;;;;;;;;;5021786;28;20539;-74
2020/12/03 12:56:30;;;;;;;31.43;17.30;;;;;;;;;;5021873;28;20619;-74
2020/12/03 12:59:34;;;;;;;29.90;16.90;;;;;;;;;;5020867;28;20572;-74
2020/12/03 13:02:38;;;;;;;30.77;16.43;;;;;;;;;;5021743;28;20548;-73
2020/12/03 13:05:42;;;;;;;31.43;16.23;;;;;;;;;;5015622;28;20656;-75
2020/12/03 13:08:46;;;;;;;29.53;16.50;;;;;;;;;;5024742;28;20939;-75
2020/12/03 13:11:51;;;;;;;31.03;15.97;;;;;;;;;;4971274;28;20897;-74
2020/12/03 13:14:55;;;;;;;30.07;16.37;;;;;;;;;;4979828;28;20584;-75
2020/12/03 13:17:59;;;;;;;28.43;15.53;;;;;;;;;;5018023;28;20627;-75
2020/12/03 13:21:04;;;;;;;27.50;15.20;;;;;;;;;;5033794;28;20532;-75
2020/12/03 13:24:08;;;;;;;27.50;14.50;;;;;;;;;;5028579;28;20948;-75
2020/12/03 13:27:13;;;;;;;26.17;14.47;;;;;;;;;;5022484;28;20644;-77
2020/12/03 13:30:17;;;;;;;25.93;14.37;;;;;;;;;;4998949;28;20596;-76
2020/12/03 13:33:22;;;;;;;21.93;13.00;;;;;;;;;;5021484;28;20544;-75
2020/12/03 13:36:26;;;;;;;23.97;13.80;;;;;;;;;;5016776;28;21233;-80
2020/12/03 13:39:31;;;;;;;24.30;13.70;;;;;;;;;;4971467;28;20542;-81
2020/12/03 13:42:35;;;;;;;26.23;13.47;;;;;;;;;;4971092;28;20628;-81
2020/12/03 13:45:40;;;;;;;23.83;14.37;;;;;;;;;;4971354;28;20616;-81
2020/12/03 13:48:44;;;;;;;24.07;13.57;;;;;;;;;;4983123;28;20538;-81
2020/12/03 13:51:49;;;;;;;25.07;13.70;;;;;;;;;;4971413;28;20542;-81
2020/12/03 13:54:53;;;;;;;25.63;13.53;;;;;;;;;;4960337;28;20550;-81
2020/12/03 13:57:59;;;;;;;24.13;13.53;;;;;;;;;;4971521;28;20589;-81
2020/12/03 14:01:03;;;;;;;26.07;14.20;;;;;;;;;;4982169;28;21174;-81
2020/12/03 14:04:07;;;;;;;23.40;13.87;;;;;;;;;;4982722;28;20550;-81
2020/12/03 14:07:11;;;;;;;21.33;13.40;;;;;;;;;;4960485;28;20621;-81
2020/12/03 14:10:16;;;;;;;23.90;14.07;;;;;;;;;;4971183;28;20557;-81
2020/12/03 14:13:21;;;;;;;22.53;13.83;;;;;;;;;;4982487;28;20546;-81
2020/12/03 14:16:26;;;;;;;23.13;12.90;;;;;;;;;;4982254;28;20629;-81
2020/12/03 14:19:30;;;;;;;22.73;12.27;;;;;;;;;;4981881;28;20641;-81
2020/12/03 14:22:34;;;;;;;19.97;11.90;;;;;;;;;;4960311;28;20601;-81
2020/12/03 14:25:38;;;;;;;21.57;12.70;;;;;;;;;;4971507;28;20620;-81
2020/12/03 14:28:42;;;;;;;19.90;12.33;;;;;;;;;;4974484;28;20538;-80
2020/12/03 14:31:47;;;;;;;21.57;12.90;;;;;;;;;;4982864;28;20553;-80
2020/12/03 14:34:51;;;;;;;22.63;12.83;;;;;;;;;;4972264;28;20541;-79
2020/12/03 14:37:55;;;;;;;23.10;12.97;;;;;;;;;;4987114;28;20589;-79
2020/12/03 14:41:00;;;;;;;22.07;12.63;;;;;;;;;;4986899;28;20604;-79
2020/12/03 14:44:04;;;;;;;23.07;12.27;;;;;;;;;;4986870;28;20613;-79
2020/12/03 14:47:08;;;;;;;21.73;12.40;;;;;;;;;;4987244;28;20620;-79
2020/12/03 14:50:19;;;;;;;26.07;12.67;;;;;;;;;;4976478;28;20533;-79
2020/12/03 14:53:23;;;;;;;24.50;12.77;;;;;;;;;;4999554;28;20550;-79
2020/12/03 14:56:27;;;;;;;21.10;12.27;;;;;;;;;;4987049;28;20628;-79
2020/12/03 14:59:31;;;;;;;22.77;12.93;;;;;;;;;;4975978;28;20592;-79
2020/12/03 15:02:36;;;;;;;21.53;12.60;;;;;;;;;;4989992;28;20595;-79
2020/12/03 15:05:40;;;;;;;20.97;11.90;;;;;;;;;;4986554;28;20652;-79
2020/12/03 15:08:44;;;;;;;21.07;12.37;;;;;;;;;;4972437;28;20581;-79
2020/12/03 15:11:53;;;;;;;22.47;12.57;;;;;;;;;;4989969;28;20572;-79
2020/12/03 15:14:57;;;;;;;23.63;12.60;;;;;;;;;;5004375;28;21133;-79
2020/12/03 15:18:01;;;;;;;23.50;12.33;;;;;;;;;;5001889;28;20603;-79
2020/12/03 15:21:05;;;;;;;20.43;12.40;;;;;;;;;;5024918;28;20884;-79
2020/12/03 15:24:10;;;;;;;21.87;12.87;;;;;;;;;;5013306;28;20587;-78
2020/12/03 15:27:14;;;;;;;24.20;13.80;;;;;;;;;;5013262;28;20615;-78
2020/12/03 15:30:18;;;;;;;22.20;13.63;;;;;;;;;;5008221;28;20588;-78
2020/12/03 15:33:22;;;;;;;25.23;12.87;;;;;;;;;;5013541;28;20536;-78
2020/12/03 15:36:26;;;;;;;27.20;13.60;;;;;;;;;;5002202;28;21077;-78
2020/12/03 15:39:33;;;;;;;24.07;13.33;;;;;;;;;;4985445;28;20647;-78
2020/12/03 15:42:37;;;;;;;33.50;14.57;;;;;;;;;;4982376;28;20667;-78
2020/12/03 15:45:41;;;;;;;23.80;12.90;;;;;;;;;;4961935;28;20627;-73
2020/12/03 15:48:46;;;;;;;23.37;13.33;;;;;;;;;;5031308;28;20602;-73
2020/12/03 15:51:51;;;;;;;24.27;14.00;;;;;;;;;;5035235;28;20543;-74
2020/12/03 15:54:56;;;;;;;27.97;14.87;;;;;;;;;;5006816;28;20595;-73
2020/12/03 15:58:00;;;;;;;26.13;14.17;;;;;;;;;;4983765;28;20549;-74
2020/12/03 16:01:04;;;;;;;25.47;14.17;;;;;;;;;;5009044;28;20611;-73
2020/12/03 16:04:08;;;;;;;23.87;14.43;;;;;;;;;;5015254;28;20611;-74
2020/12/03 16:07:17;;;;;;;24.63;14.00;;;;;;;;;;5002983;28;20658;-74
2020/12/03 16:10:22;;;;;;;28.87;13.63;;;;;;;;;;5020148;28;20601;-74
2020/12/03 16:13:25;;;;;;;25.40;14.33;;;;;;;;;;5034552;28;20556;-74
2020/12/03 16:16:30;;;;;;;28.13;14.90;;;;;;;;;;5034333;28;20642;-74
2020/12/03 16:19:36;;;;;;;35.80;15.07;;;;;;;;;;5022804;28;20596;-74
2020/12/03 16:22:41;;;;;;;30.67;16.30;;;;;;;;;;5013416;28;20598;-75
2020/12/03 16:25:44;;;;;;;33.70;16.77;;;;;;;;;;5021575;28;20645;-74
2020/12/03 16:28:49;;;;;;;26.93;15.13;;;;;;;;;;5022433;28;20536;-74
2020/12/03 16:31:56;;;;;;;28.43;15.50;;;;;;;;;;5011012;28;21124;-74
2020/12/03 16:35:00;;;;;;;30.27;16.27;;;;;;;;;;4983131;28;20553;-74
2020/12/03 16:38:05;;;;;;;27.90;15.40;;;;;;;;;;5002603;28;20605;-74
2020/12/03 16:41:09;;;;;;;30.20;16.57;;;;;;;;;;5002340;28;20933;-73
2020/12/03 16:44:13;;;;;;;32.50;16.27;;;;;;;;;;5030775;28;20968;-74
2020/12/03 16:47:17;;;;;;;26.73;14.67;;;;;;;;;;5021891;28;20989;-74
2020/12/03 16:50:23;;;;;;;26.73;14.40;;;;;;;;;;5033956;28;20547;-74
2020/12/03 16:53:27;;;;;;;29.00;15.00;;;;;;;;;;5023520;28;20597;-74
2020/12/03 16:56:31;;;;;;;33.97;15.13;;;;;;;;;;4990914;28;20635;-74
2020/12/03 16:59:35;;;;;;;28.83;14.77;;;;;;;;;;4992881;28;20660;-74
2020/12/03 17:02:40;;;;;;;29.43;15.47;;;;;;;;;;5001979;28;20982;-74
2020/12/03 17:05:44;;;;;;;27.40;14.80;;;;;;;;;;5010150;28;21249;-73
2020/12/03 17:08:48;;;;;;;29.33;14.70;;;;;;;;;;5033046;28;20600;-74
2020/12/03 17:11:52;;;;;;;26.70;14.67;;;;;;;;;;5033526;28;20606;-73
2020/12/03 17:14:57;;;;;;;30.03;14.90;;;;;;;;;;4988965;28;20629;-73
2020/12/03 17:18:01;;;;;;;29.03;14.93;;;;;;;;;;5013680;28;20627;-73
2020/12/03 17:21:06;;;;;;;35.80;15.70;;;;;;;;;;5009419;28;20607;-73
2020/12/03 17:24:10;;;;;;;28.07;14.57;;;;;;;;;;5023552;28;21184;-72
2020/12/03 17:27:15;;;;;;;32.77;15.80;;;;;;;;;;5021021;28;20627;-73
2020/12/03 17:30:20;;;;;;;27.43;14.73;;;;;;;;;;4994234;28;20537;-72
2020/12/03 17:33:24;;;;;;;27.27;14.50;;;;;;;;;;4982314;28;20536;-73
2020/12/03 17:36:27;;;;;;;31.00;15.30;;;;;;;;;;4981939;28;21210;-72
2020/12/03 17:39:33;;;;;;;31.03;13.93;;;;;;;;;;4996339;28;21229;-72
2020/12/03 17:42:37;;;;;;;30.37;14.43;;;;;;;;;;5011664;28;20671;-73
2020/12/03 17:45:43;;;;;;;28.50;15.00;;;;;;;;;;5004016;28;20657;-73
2020/12/03 17:48:47;;;;;;;32.67;15.93;;;;;;;;;;4990302;28;20545;-74
2020/12/03 17:51:52;;;;;;;32.80;17.30;;;;;;;;;;4990338;28;20552;-73
2020/12/03 17:54:56;;;;;;;27.33;15.23;;;;;;;;;;5030935;28;20626;-73
2020/12/03 17:58:00;;;;;;;28.83;15.43;;;;;;;;;;5013420;28;20631;-72
2020/12/03 18:01:04;;;;;;;30.93;16.10;;;;;;;;;;5001094;28;20536;-73
2020/12/03 18:04:09;;;;;;;30.17;15.83;;;;;;;;;;5013246;28;20552;-73
2020/12/03 18:07:13;;;;;;;28.57;15.43;;;;;;;;;;5025222;28;20661;-73
2020/12/03 18:10:17;;;;;;;29.27;15.93;;;;;;;;;;5034914;28;20547;-76
2020/12/03 18:13:21;;;;;;;32.73;15.20;;;;;;;;;;5025235;28;20547;-76
2020/12/03 18:16:26;;;;;;;27.87;15.23;;;;;;;;;;5010657;28;20654;-77
2020/12/03 18:19:30;;;;;;;33.57;16.40;;;;;;;;;;5014591;28;20637;-76
2020/12/03 18:22:34;;;;;;;30.47;16.07;;;;;;;;;;5013383;28;20640;-76